createdAt,value
2024-03-03T00:00:06.365Z,986.39
2024-03-03T00:01:06.473Z,986.38
2024-03-03T00:02:06.386Z,986.41
2024-03-03T00:03:06.332Z,986.44
2024-03-03T00:04:06.389Z,986.45
2024-03-03T00:05:06.370Z,986.45
2024-03-03T00:06:06.342Z,986.52
2024-03-03T00:07:06.295Z,986.45
2024-03-03T00:08:06.275Z,986.43
2024-03-03T00:09:06.282Z,986.45
2024-03-03T00:10:06.297Z,986.39
2024-03-03T00:11:06.401Z,986.35
2024-03-03T00:12:06.227Z,986.36
2024-03-03T00:13:06.246Z,986.34
2024-03-03T00:14:06.193Z,986.32
2024-03-03T00:15:06.204Z,986.29
2024-03-03T00:16:06.316Z,986.32
2024-03-03T00:17:06.174Z,986.34
2024-03-03T00:18:06.225Z,986.31
2024-03-03T00:19:06.219Z,986.34
2024-03-03T00:20:06.146Z,986.30
2024-03-03T00:21:06.130Z,986.34
2024-03-03T00:22:06.179Z,986.31
2024-03-03T00:23:06.107Z,986.26
2024-03-03T00:24:06.096Z,986.27
2024-03-03T00:25:06.155Z,986.23
2024-03-03T00:26:06.107Z,986.30
2024-03-03T00:27:06.052Z,986.26
2024-03-03T00:28:06.140Z,986.26
2024-03-03T00:29:06.075Z,986.30
2024-03-03T00:30:06.032Z,986.23
2024-03-03T00:31:06.054Z,986.28
2024-03-03T00:32:06.005Z,986.27
2024-03-03T00:33:06.028Z,986.29
2024-03-03T00:34:06.096Z,986.28
2024-03-03T00:35:05.963Z,986.32
2024-03-03T00:36:05.947Z,986.28
2024-03-03T00:37:06.019Z,986.30
2024-03-03T00:38:05.925Z,986.27
2024-03-03T00:39:05.954Z,986.28
2024-03-03T00:40:05.933Z,986.26
2024-03-03T00:41:05.922Z,986.28
2024-03-03T00:42:05.893Z,986.25
2024-03-03T00:43:05.890Z,986.24
2024-03-03T00:44:05.884Z,986.26
2024-03-03T00:45:05.910Z,986.24
2024-03-03T00:46:05.872Z,986.22
2024-03-03T00:47:05.846Z,986.26
2024-03-03T00:48:05.870Z,986.23
2024-03-03T00:49:05.854Z,986.24
2024-03-03T00:50:05.812Z,986.20
2024-03-03T00:51:05.833Z,986.17
2024-03-03T00:52:05.804Z,986.21
2024-03-03T00:53:05.793Z,986.19
2024-03-03T00:54:05.767Z,986.20
2024-03-03T00:55:05.777Z,986.18
2024-03-03T00:56:05.758Z,986.22
2024-03-03T00:57:05.743Z,986.21
2024-03-03T00:58:05.780Z,986.18
2024-03-03T00:59:05.700Z,986.12
2024-03-03T01:00:05.714Z,986.17
2024-03-03T01:01:05.679Z,986.14
2024-03-03T01:02:05.720Z,986.14
2024-03-03T01:03:05.644Z,986.10
2024-03-03T01:04:05.693Z,986.14
2024-03-03T01:05:05.627Z,986.10
2024-03-03T01:06:05.643Z,986.14
2024-03-03T01:07:05.633Z,986.16
2024-03-03T01:08:05.662Z,986.13
2024-03-03T01:09:05.594Z,986.14
2024-03-03T01:10:05.611Z,986.11
2024-03-03T01:11:05.555Z,986.17
2024-03-03T01:12:05.612Z,986.11
2024-03-03T01:13:05.597Z,986.07
2024-03-03T01:14:05.520Z,986.11
2024-03-03T01:15:05.575Z,986.08
2024-03-03T01:16:05.507Z,986.07
2024-03-03T01:17:05.498Z,986.04
2024-03-03T01:18:05.487Z,986.03
2024-03-03T01:19:05.521Z,986.04
2024-03-03T01:20:05.515Z,986.00
2024-03-03T01:21:05.442Z,986.01
2024-03-03T01:22:05.542Z,986.00
2024-03-03T01:23:05.436Z,985.97
2024-03-03T01:24:05.400Z,985.99
2024-03-03T01:25:05.479Z,985.99
2024-03-03T01:26:05.429Z,986.04
2024-03-03T01:27:05.375Z,986.05
2024-03-03T01:28:05.398Z,986.01
2024-03-03T01:29:05.370Z,986.06
2024-03-03T01:30:05.383Z,985.99
2024-03-03T01:31:05.445Z,986.01
2024-03-03T01:32:05.348Z,986.00
2024-03-03T01:33:05.383Z,985.98
2024-03-03T01:34:05.362Z,985.98
2024-03-03T01:35:05.284Z,986.00
2024-03-03T01:36:05.276Z,985.99
2024-03-03T01:37:05.340Z,986.01
2024-03-03T01:38:05.272Z,985.98
2024-03-03T01:39:05.243Z,986.01
2024-03-03T01:40:05.296Z,985.97
2024-03-03T01:41:05.229Z,986.00
2024-03-03T01:42:05.280Z,986.00
2024-03-03T01:43:05.269Z,986.03
2024-03-03T01:44:05.210Z,986.05
2024-03-03T01:45:05.169Z,985.98
2024-03-03T01:46:05.230Z,985.98
2024-03-03T01:47:05.146Z,985.96
2024-03-03T01:48:05.300Z,985.97
2024-03-03T01:49:05.162Z,986.02
2024-03-03T01:50:05.106Z,986.03
2024-03-03T01:51:05.127Z,986.00
2024-03-03T01:52:05.159Z,985.99
2024-03-03T01:53:05.097Z,985.97
2024-03-03T01:54:05.111Z,985.99
2024-03-03T01:55:05.111Z,985.98
2024-03-03T01:56:05.045Z,985.96
2024-03-03T01:57:05.070Z,985.99
2024-03-03T01:58:05.077Z,985.93
2024-03-03T01:59:05.033Z,985.97
2024-03-03T02:00:05.027Z,985.93
2024-03-03T02:01:05.107Z,985.93
2024-03-03T02:02:05.100Z,985.95
2024-03-03T02:03:04.983Z,985.98
2024-03-03T02:04:05.007Z,986.04
2024-03-03T02:05:04.995Z,985.98
2024-03-03T02:06:04.942Z,986.02
2024-03-03T02:07:04.993Z,986.02
2024-03-03T02:08:04.910Z,986.08
2024-03-03T02:09:04.910Z,986.04
2024-03-03T02:10:04.940Z,986.05
2024-03-03T02:11:04.939Z,986.07
2024-03-03T02:12:04.888Z,986.00
2024-03-03T02:13:04.881Z,986.07
2024-03-03T02:14:04.861Z,986.05
2024-03-03T02:15:04.863Z,985.97
2024-03-03T02:16:04.939Z,986.00
2024-03-03T02:17:04.806Z,985.99
2024-03-03T02:18:04.858Z,986.01
2024-03-03T02:19:04.841Z,986.01
2024-03-03T02:20:04.836Z,985.98
2024-03-03T02:21:04.855Z,985.97
2024-03-03T02:22:04.821Z,985.92
2024-03-03T02:23:04.759Z,985.93
2024-03-03T02:24:04.728Z,985.93
2024-03-03T02:25:04.775Z,985.95
2024-03-03T02:26:04.777Z,985.92
2024-03-03T02:27:04.719Z,985.88
2024-03-03T02:28:04.722Z,985.94
2024-03-03T02:29:04.696Z,985.89
2024-03-03T02:30:04.664Z,985.89
2024-03-03T02:31:04.832Z,985.91
2024-03-03T02:32:04.669Z,985.86
2024-03-03T02:33:04.780Z,985.85
2024-03-03T02:34:04.652Z,985.88
2024-03-03T02:35:04.667Z,985.84
2024-03-03T02:36:04.585Z,985.74
2024-03-03T02:37:04.637Z,985.80
2024-03-03T02:38:04.603Z,985.75
2024-03-03T02:39:04.560Z,985.75
2024-03-03T02:40:04.765Z,985.81
2024-03-03T02:41:04.581Z,985.85
2024-03-03T02:42:04.540Z,985.86
2024-03-03T02:43:04.572Z,985.87
2024-03-03T02:44:04.537Z,985.84
2024-03-03T02:45:04.489Z,985.86
2024-03-03T02:46:04.562Z,985.85
2024-03-03T02:47:04.502Z,985.81
2024-03-03T02:48:04.534Z,985.85
2024-03-03T02:49:04.547Z,985.85
2024-03-03T02:50:04.459Z,985.87
2024-03-03T02:51:04.467Z,985.84
2024-03-03T02:52:04.470Z,985.81
2024-03-03T02:53:04.416Z,985.82
2024-03-03T02:54:04.459Z,985.83
2024-03-03T02:55:04.487Z,985.83
2024-03-03T02:56:04.363Z,985.83
2024-03-03T02:57:04.374Z,985.86
2024-03-03T02:58:04.349Z,985.88
2024-03-03T02:59:04.366Z,985.94
2024-03-03T03:00:04.345Z,985.91
2024-03-03T03:01:04.385Z,985.93
2024-03-03T03:02:04.366Z,985.92
2024-03-03T03:03:04.327Z,985.97
2024-03-03T03:04:04.341Z,985.97
2024-03-03T03:05:04.330Z,985.91
2024-03-03T03:06:04.267Z,985.86
2024-03-03T03:07:04.288Z,985.87
2024-03-03T03:08:04.264Z,985.91
2024-03-03T03:09:04.238Z,985.87
2024-03-03T03:10:04.281Z,985.92
2024-03-03T03:11:04.259Z,985.87
2024-03-03T03:12:04.201Z,985.89
2024-03-03T03:13:04.228Z,985.86
2024-03-03T03:14:04.163Z,985.83
2024-03-03T03:15:04.166Z,985.83
2024-03-03T03:16:04.234Z,985.84
2024-03-03T03:17:04.147Z,985.78
2024-03-03T03:18:04.253Z,985.78
2024-03-03T03:19:04.147Z,985.79
2024-03-03T03:20:04.104Z,985.75
2024-03-03T03:21:04.105Z,985.78
2024-03-03T03:22:04.092Z,985.77
2024-03-03T03:23:04.067Z,985.80
2024-03-03T03:24:04.081Z,985.76
2024-03-03T03:25:04.099Z,985.81
2024-03-03T03:26:04.055Z,985.80
2024-03-03T03:27:04.048Z,985.75
2024-03-03T03:28:04.076Z,985.80
2024-03-03T03:29:03.995Z,985.80
2024-03-03T03:30:04.004Z,985.78
2024-03-03T03:31:04.067Z,985.81
2024-03-03T03:32:03.995Z,985.81
2024-03-03T03:33:04.000Z,985.87
2024-03-03T03:34:03.985Z,985.86
2024-03-03T03:35:03.956Z,985.84
2024-03-03T03:36:03.926Z,985.85
2024-03-03T03:37:04.115Z,985.83
2024-03-03T03:38:03.954Z,985.86
2024-03-03T03:39:03.980Z,985.80
2024-03-03T03:40:03.951Z,985.84
2024-03-03T03:41:03.864Z,985.84
2024-03-03T03:42:03.862Z,985.86
2024-03-03T03:43:03.838Z,985.86
2024-03-03T03:44:03.855Z,985.84
2024-03-03T03:45:03.832Z,985.88
2024-03-03T03:46:03.828Z,985.85
2024-03-03T03:47:03.805Z,985.79
2024-03-03T03:48:03.879Z,985.75
2024-03-03T03:49:03.799Z,985.76
2024-03-03T03:50:03.791Z,985.73
2024-03-03T03:51:03.782Z,985.77
2024-03-03T03:52:03.785Z,985.74
2024-03-03T03:53:03.728Z,985.80
2024-03-03T03:54:03.743Z,985.79
2024-03-03T03:55:03.763Z,985.77
2024-03-03T03:56:03.703Z,985.75
2024-03-03T03:57:03.710Z,985.71
2024-03-03T03:58:03.707Z,985.79
2024-03-03T03:59:03.663Z,985.73
2024-03-03T04:00:03.656Z,985.79
2024-03-03T04:01:03.707Z,985.73
2024-03-03T04:02:03.635Z,985.74
2024-03-03T04:03:03.615Z,985.74
2024-03-03T04:04:03.632Z,985.83
2024-03-03T04:05:03.649Z,985.79
2024-03-03T04:06:03.609Z,985.87
2024-03-03T04:07:03.587Z,985.85
2024-03-03T04:08:03.548Z,985.90
2024-03-03T04:09:03.561Z,985.88
2024-03-03T04:10:03.586Z,985.89
2024-03-03T04:11:03.548Z,985.89
2024-03-03T04:12:03.522Z,985.92
2024-03-03T04:13:03.513Z,985.95
2024-03-03T04:14:03.527Z,985.89
2024-03-03T04:15:03.460Z,985.94
2024-03-03T04:16:03.539Z,985.89
2024-03-03T04:17:03.447Z,985.97
2024-03-03T04:18:03.451Z,985.96
2024-03-03T04:19:03.449Z,986.04
2024-03-03T04:20:03.416Z,986.03
2024-03-03T04:21:03.449Z,986.07
2024-03-03T04:22:03.493Z,986.08
2024-03-03T04:23:03.390Z,986.06
2024-03-03T04:24:03.356Z,986.04
2024-03-03T04:25:03.380Z,986.02
2024-03-03T04:26:03.355Z,986.00
2024-03-03T04:27:03.362Z,985.98
2024-03-03T04:28:03.402Z,985.96
2024-03-03T04:29:03.308Z,985.97
2024-03-03T04:30:03.288Z,985.98
2024-03-03T04:31:03.353Z,985.94
2024-03-03T04:32:03.291Z,985.98
2024-03-03T04:33:03.311Z,985.87
2024-03-03T04:34:03.359Z,985.92
2024-03-03T04:35:03.276Z,985.92
2024-03-03T04:36:03.232Z,985.90
2024-03-03T04:37:03.255Z,985.91
2024-03-03T04:38:03.227Z,985.94
2024-03-03T04:39:03.190Z,985.87
2024-03-03T04:40:03.247Z,985.90
2024-03-03T04:41:03.179Z,985.84
2024-03-03T04:42:03.188Z,985.81
2024-03-03T04:43:03.214Z,985.80
2024-03-03T04:44:03.141Z,985.73
2024-03-03T04:45:03.139Z,985.67
2024-03-03T04:46:03.123Z,985.67
2024-03-03T04:47:03.113Z,985.69
2024-03-03T04:48:03.159Z,985.67
2024-03-03T04:49:03.138Z,985.63
2024-03-03T04:50:03.086Z,985.69
2024-03-03T04:51:03.108Z,985.69
2024-03-03T04:52:03.224Z,985.70
2024-03-03T04:53:03.027Z,985.68
2024-03-03T04:54:03.067Z,985.66
2024-03-03T04:55:03.101Z,985.71
2024-03-03T04:56:03.026Z,985.70
2024-03-03T04:57:03.028Z,985.72
2024-03-03T04:58:03.011Z,985.65
2024-03-03T04:59:03.004Z,985.64
2024-03-03T05:00:02.976Z,985.64
2024-03-03T05:01:03.089Z,985.67
2024-03-03T05:02:02.922Z,985.65
2024-03-03T05:03:02.955Z,985.68
2024-03-03T05:04:03.081Z,985.70
2024-03-03T05:05:02.891Z,985.71
2024-03-03T05:06:02.903Z,985.76
2024-03-03T05:07:02.936Z,985.78
2024-03-03T05:08:02.858Z,985.76
2024-03-03T05:09:02.882Z,985.79
2024-03-03T05:10:02.948Z,985.79
2024-03-03T05:11:02.886Z,985.77
2024-03-03T05:12:02.829Z,985.80
2024-03-03T05:13:02.867Z,985.80
2024-03-03T05:14:02.860Z,985.77
2024-03-03T05:15:02.815Z,985.83
2024-03-03T05:16:02.796Z,985.85
2024-03-03T05:17:02.760Z,985.79
2024-03-03T05:18:02.765Z,985.84
2024-03-03T05:19:02.771Z,985.81
2024-03-03T05:20:02.734Z,985.82
2024-03-03T05:21:02.736Z,985.86
2024-03-03T05:22:02.795Z,985.85
2024-03-03T05:23:02.707Z,985.86
2024-03-03T05:24:02.754Z,985.89
2024-03-03T05:25:02.702Z,985.88
2024-03-03T05:26:02.647Z,985.87
2024-03-03T05:27:02.642Z,985.85
2024-03-03T05:28:02.650Z,985.84
2024-03-03T05:29:02.653Z,985.85
2024-03-03T05:30:02.660Z,985.88
2024-03-03T05:31:02.659Z,985.88
2024-03-03T05:32:02.585Z,985.81
2024-03-03T05:33:02.632Z,985.87
2024-03-03T05:34:02.628Z,985.79
2024-03-03T05:35:02.581Z,985.79
2024-03-03T05:36:02.557Z,985.82
2024-03-03T05:37:02.616Z,985.84
2024-03-03T05:38:02.537Z,985.86
2024-03-03T05:39:02.537Z,985.81
2024-03-03T05:40:02.612Z,985.81
2024-03-03T05:41:02.581Z,985.87
2024-03-03T05:42:02.492Z,985.88
2024-03-03T05:43:02.588Z,985.86
2024-03-03T05:44:02.467Z,985.87
2024-03-03T05:45:02.486Z,985.88
2024-03-03T05:46:02.540Z,985.83
2024-03-03T05:47:02.427Z,985.82
2024-03-03T05:48:02.494Z,985.84
2024-03-03T05:49:02.431Z,985.82
2024-03-03T05:50:02.388Z,985.86
2024-03-03T05:51:02.394Z,985.83
2024-03-03T05:52:02.422Z,985.84
2024-03-03T05:53:02.359Z,985.86
2024-03-03T05:54:02.344Z,985.89
2024-03-03T05:55:02.448Z,985.87
2024-03-03T05:56:02.310Z,985.85
2024-03-03T05:57:02.342Z,985.84
2024-03-03T05:58:02.353Z,985.89
2024-03-03T05:59:02.306Z,985.89
2024-03-03T06:00:02.284Z,985.79
2024-03-03T06:01:02.361Z,985.84
2024-03-03T06:02:02.361Z,985.90
2024-03-03T06:03:02.281Z,985.81
2024-03-03T06:04:02.303Z,985.81
2024-03-03T06:05:02.221Z,985.88
2024-03-03T06:06:02.218Z,985.89
2024-03-03T06:07:02.241Z,985.84
2024-03-03T06:08:02.241Z,985.86
2024-03-03T06:09:02.186Z,985.83
2024-03-03T06:10:02.248Z,985.82
2024-03-03T06:11:02.259Z,985.83
2024-03-03T06:12:02.142Z,985.79
2024-03-03T06:13:02.232Z,985.77
2024-03-03T06:14:02.168Z,985.78
2024-03-03T06:15:02.119Z,985.76
2024-03-03T06:16:02.189Z,985.73
2024-03-03T06:17:02.101Z,985.79
2024-03-03T06:18:02.146Z,985.78
2024-03-03T06:19:02.126Z,985.79
2024-03-03T06:20:02.107Z,985.81
2024-03-03T06:21:02.028Z,985.82
2024-03-03T06:22:02.098Z,985.83
2024-03-03T06:23:02.017Z,985.85
2024-03-03T06:24:02.039Z,985.86
2024-03-03T06:25:02.049Z,985.85
2024-03-03T06:26:01.968Z,985.82
2024-03-03T06:27:02.018Z,985.80
2024-03-03T06:28:01.995Z,985.81
2024-03-03T06:29:05.122Z,985.80
2024-03-03T06:30:01.941Z,985.81
2024-03-03T06:31:01.983Z,985.79
2024-03-03T06:32:01.913Z,985.82
2024-03-03T06:33:01.939Z,985.81
2024-03-03T06:34:02.049Z,985.85
2024-03-03T06:35:01.886Z,985.92
2024-03-03T06:36:01.920Z,985.85
2024-03-03T06:37:01.871Z,985.83
2024-03-03T06:38:01.866Z,985.83
2024-03-03T06:39:01.855Z,985.87
2024-03-03T06:40:01.911Z,985.83
2024-03-03T06:41:01.855Z,985.87
2024-03-03T06:42:01.807Z,985.83
2024-03-03T06:43:01.812Z,985.84
2024-03-03T06:44:01.782Z,985.88
2024-03-03T06:45:01.808Z,985.88
2024-03-03T06:46:01.802Z,985.87
2024-03-03T06:47:01.751Z,985.92
2024-03-03T06:48:01.869Z,985.90
2024-03-03T06:49:01.839Z,985.89
2024-03-03T06:50:01.757Z,985.91
2024-03-03T06:51:02.009Z,985.89
2024-03-03T06:52:01.716Z,985.85
2024-03-03T06:53:01.680Z,985.82
2024-03-03T06:54:01.711Z,985.87
2024-03-03T06:55:01.743Z,985.86
2024-03-03T06:56:01.671Z,985.89
2024-03-03T06:57:01.615Z,985.87
2024-03-03T06:58:01.673Z,985.79
2024-03-03T06:59:01.629Z,985.85
2024-03-03T07:00:01.678Z,985.82
2024-03-03T07:01:01.667Z,985.87
2024-03-03T07:02:01.718Z,985.84
2024-03-03T07:03:01.563Z,985.80
2024-03-03T07:04:01.619Z,985.71
2024-03-03T07:05:01.558Z,985.76
2024-03-03T07:06:01.551Z,985.71
2024-03-03T07:07:01.578Z,985.77
2024-03-03T07:08:04.679Z,985.73
2024-03-03T07:09:01.495Z,985.72
2024-03-03T07:10:01.539Z,985.82
2024-03-03T07:11:01.574Z,985.81
2024-03-03T07:12:01.515Z,985.78
2024-03-03T07:13:01.550Z,985.76
2024-03-03T07:14:01.425Z,985.76
2024-03-03T07:15:01.440Z,985.71
2024-03-03T07:16:02.149Z,985.76
2024-03-03T07:17:01.396Z,985.79
2024-03-03T07:18:01.449Z,985.76
2024-03-03T07:19:01.476Z,985.77
2024-03-03T07:20:01.416Z,985.82
2024-03-03T07:21:01.356Z,985.82
2024-03-03T07:22:01.410Z,985.78
2024-03-03T07:23:01.394Z,985.79
2024-03-03T07:24:01.346Z,985.81
2024-03-03T07:25:01.347Z,985.86
2024-03-03T07:26:01.326Z,985.85
2024-03-03T07:27:01.278Z,985.87
2024-03-03T07:28:01.369Z,985.82
2024-03-03T07:29:01.284Z,985.87
2024-03-03T07:30:01.278Z,985.85
2024-03-03T07:31:01.290Z,985.85
2024-03-03T07:32:01.241Z,985.86
2024-03-03T07:33:01.338Z,985.79
2024-03-03T07:34:01.268Z,985.82
2024-03-03T07:35:01.229Z,985.81
2024-03-03T07:36:01.183Z,985.83
2024-03-03T07:37:01.206Z,985.83
2024-03-03T07:38:01.171Z,985.81
2024-03-03T07:39:01.172Z,985.84
2024-03-03T07:40:01.225Z,985.84
2024-03-03T07:41:01.141Z,985.82
2024-03-03T07:42:03.762Z,985.83
2024-03-03T07:43:01.193Z,985.85
2024-03-03T07:44:01.121Z,985.85
2024-03-03T07:45:01.143Z,985.88
2024-03-03T07:46:01.137Z,985.84
2024-03-03T07:47:01.044Z,985.87
2024-03-03T07:48:01.141Z,985.89
2024-03-03T07:49:01.092Z,985.94
2024-03-03T07:50:01.055Z,985.90
2024-03-03T07:51:01.060Z,985.91
2024-03-03T07:52:01.052Z,986.00
2024-03-03T07:53:00.978Z,985.99
2024-03-03T07:54:00.986Z,985.89
2024-03-03T07:55:01.046Z,985.92
2024-03-03T07:56:00.959Z,985.93
2024-03-03T07:57:00.965Z,985.88
2024-03-03T07:58:00.997Z,985.88
2024-03-03T07:59:00.914Z,985.84
2024-03-03T08:00:00.937Z,985.88
2024-03-03T08:01:00.989Z,985.87
2024-03-03T08:02:01.148Z,985.89
2024-03-03T08:03:00.890Z,985.83
2024-03-03T08:04:00.923Z,985.83
2024-03-03T08:05:00.849Z,985.83
2024-03-03T08:06:00.869Z,985.86
2024-03-03T08:07:00.849Z,985.90
2024-03-03T08:08:00.838Z,985.85
2024-03-03T08:09:00.823Z,985.85
2024-03-03T08:10:00.866Z,985.84
2024-03-03T08:11:00.830Z,985.82
2024-03-03T08:12:00.826Z,985.85
2024-03-03T08:13:00.785Z,985.80
2024-03-03T08:14:00.796Z,985.78
2024-03-03T08:15:00.759Z,985.81
2024-03-03T08:16:00.730Z,985.83
2024-03-03T08:17:00.697Z,985.78
2024-03-03T08:18:02.250Z,985.77
2024-03-03T08:19:00.727Z,985.74
2024-03-03T08:20:00.688Z,985.76
2024-03-03T08:21:00.668Z,985.79
2024-03-03T08:22:00.682Z,985.72
2024-03-03T08:23:00.620Z,985.70
2024-03-03T08:24:00.640Z,985.72
2024-03-03T08:25:00.792Z,985.67
2024-03-03T08:26:00.612Z,985.72
2024-03-03T08:27:00.610Z,985.66
2024-03-03T08:28:00.605Z,985.66
2024-03-03T08:29:00.582Z,985.68
2024-03-03T08:30:00.612Z,985.65
2024-03-03T08:31:00.602Z,985.58
2024-03-03T08:32:03.603Z,985.60
2024-03-03T08:33:00.589Z,985.58
2024-03-03T08:34:00.634Z,985.61
2024-03-03T08:35:00.545Z,985.54
2024-03-03T08:36:00.567Z,985.54
2024-03-03T08:37:00.529Z,985.58
2024-03-03T08:38:00.532Z,985.56
2024-03-03T08:39:00.455Z,985.55
2024-03-03T08:40:00.515Z,985.54
2024-03-03T08:41:00.611Z,985.50
2024-03-03T08:42:00.455Z,985.53
2024-03-03T08:43:00.462Z,985.50
2024-03-03T08:44:00.398Z,985.49
2024-03-03T08:45:00.406Z,985.51
2024-03-03T08:46:00.520Z,985.51
2024-03-03T08:47:00.411Z,985.48
2024-03-03T08:48:00.392Z,985.46
2024-03-03T08:49:00.347Z,985.45
2024-03-03T08:50:00.358Z,985.53
2024-03-03T08:51:00.350Z,985.51
2024-03-03T08:52:00.364Z,985.47
2024-03-03T08:53:00.277Z,985.55
2024-03-03T08:54:00.283Z,985.47
2024-03-03T08:55:00.316Z,985.46
2024-03-03T08:56:00.241Z,985.50
2024-03-03T08:57:00.247Z,985.48
2024-03-03T08:58:00.245Z,985.49
2024-03-03T08:59:00.203Z,985.55
2024-03-03T09:00:00.368Z,985.51
2024-03-03T09:01:00.360Z,985.49
2024-03-03T09:02:00.335Z,985.44
2024-03-03T09:03:00.264Z,985.39
2024-03-03T09:04:00.203Z,985.41
2024-03-03T09:05:00.181Z,985.35
2024-03-03T09:06:00.143Z,985.32
2024-03-03T09:07:00.160Z,985.27
2024-03-03T09:08:00.157Z,985.30
2024-03-03T09:09:00.151Z,985.29
2024-03-03T09:10:00.146Z,985.30
2024-03-03T09:11:00.118Z,985.33
2024-03-03T09:12:00.106Z,985.27
2024-03-03T09:13:00.085Z,985.25
2024-03-03T09:14:00.063Z,985.23
2024-03-03T09:15:00.048Z,985.26
2024-03-03T09:16:00.072Z,985.22
2024-03-03T09:17:00.026Z,985.19
2024-03-03T09:18:00.075Z,985.21
2024-03-03T09:19:00.023Z,985.21
2024-03-03T09:20:00.038Z,985.21
2024-03-03T09:21:00.112Z,985.22
2024-03-03T09:21:59.994Z,985.21
2024-03-03T09:22:59.962Z,985.15
2024-03-03T09:24:01.997Z,985.14
2024-03-03T09:24:59.964Z,985.12
2024-03-03T09:25:59.947Z,985.04
2024-03-03T09:26:59.929Z,985.03
2024-03-03T09:27:59.921Z,985.08
2024-03-03T09:28:59.920Z,985.05
2024-03-03T09:29:59.871Z,984.99
2024-03-03T09:30:59.903Z,985.00
2024-03-03T09:31:59.854Z,985.06
2024-03-03T09:32:59.898Z,985.03
2024-03-03T09:33:59.844Z,985.02
2024-03-03T09:34:59.855Z,985.00
2024-03-03T09:35:59.799Z,985.01
2024-03-03T09:36:59.907Z,984.99
2024-03-03T09:37:59.777Z,984.99
2024-03-03T09:38:59.773Z,984.94
2024-03-03T09:39:59.795Z,984.97
2024-03-03T09:40:59.770Z,985.00
2024-03-03T09:41:59.720Z,985.00
2024-03-03T09:42:59.772Z,985.02
2024-03-03T09:43:59.718Z,985.02
2024-03-03T09:44:59.723Z,985.02
2024-03-03T09:45:59.773Z,984.99
2024-03-03T09:46:59.701Z,984.99
2024-03-03T09:47:59.702Z,984.94
2024-03-03T09:48:59.800Z,984.89
2024-03-03T09:49:59.661Z,984.90
2024-03-03T09:50:59.630Z,984.93
2024-03-03T09:51:59.722Z,984.94
2024-03-03T09:52:59.605Z,984.93
2024-03-03T09:53:59.614Z,984.94
2024-03-03T09:54:59.734Z,984.88
2024-03-03T09:55:59.559Z,984.86
2024-03-03T09:56:59.631Z,984.83
2024-03-03T09:57:59.570Z,984.82
2024-03-03T09:58:59.525Z,984.84
2024-03-03T09:59:59.552Z,984.82
2024-03-03T10:00:59.629Z,984.82
2024-03-03T10:01:59.582Z,984.81
2024-03-03T10:02:59.485Z,984.81
2024-03-03T10:03:59.481Z,984.84
2024-03-03T10:04:59.511Z,984.80
2024-03-03T10:05:59.478Z,984.84
2024-03-03T10:06:59.492Z,984.81
2024-03-03T10:07:59.426Z,984.80
2024-03-03T10:08:59.420Z,984.80
2024-03-03T10:09:59.442Z,984.76
2024-03-03T10:10:59.506Z,984.75
2024-03-03T10:11:59.396Z,984.75
2024-03-03T10:12:59.438Z,984.74
2024-03-03T10:13:59.369Z,984.72
2024-03-03T10:14:59.394Z,984.73
2024-03-03T10:15:59.364Z,984.75
2024-03-03T10:16:59.362Z,984.72
2024-03-03T10:17:59.391Z,984.68
2024-03-03T10:18:59.370Z,984.67
2024-03-03T10:19:59.303Z,984.68
2024-03-03T10:20:59.315Z,984.67
2024-03-03T10:21:59.304Z,984.60
2024-03-03T10:22:59.298Z,984.56
2024-03-03T10:23:59.257Z,984.59
2024-03-03T10:24:59.268Z,984.56
2024-03-03T10:25:59.239Z,984.57
2024-03-03T10:26:59.218Z,984.54
2024-03-03T10:27:59.246Z,984.52
2024-03-03T10:28:59.226Z,984.51
2024-03-03T10:29:59.192Z,984.47
2024-03-03T10:30:59.241Z,984.42
2024-03-03T10:31:59.249Z,984.41
2024-03-03T10:32:59.208Z,984.41
2024-03-03T10:33:59.185Z,984.39
2024-03-03T10:34:59.152Z,984.36
2024-03-03T10:35:59.137Z,984.36
2024-03-03T10:36:59.154Z,984.41
2024-03-03T10:37:59.140Z,984.42
2024-03-03T10:38:59.096Z,984.42
2024-03-03T10:39:59.171Z,984.42
2024-03-03T10:40:59.062Z,984.38
2024-03-03T10:41:59.067Z,984.41
2024-03-03T10:42:59.153Z,984.36
2024-03-03T10:43:59.037Z,984.33
2024-03-03T10:44:59.036Z,984.35
2024-03-03T10:45:59.066Z,984.32
2024-03-03T10:46:58.984Z,984.29
2024-03-03T10:47:59.063Z,984.28
2024-03-03T10:48:58.979Z,984.28
2024-03-03T10:49:59.001Z,984.30
2024-03-03T10:50:59.003Z,984.24
2024-03-03T10:51:59.016Z,984.20
2024-03-03T10:52:58.951Z,984.18
2024-03-03T10:53:58.965Z,984.19
2024-03-03T10:54:59.023Z,984.18
2024-03-03T10:55:58.910Z,984.14
2024-03-03T10:56:58.905Z,984.17
2024-03-03T10:57:58.981Z,984.17
2024-03-03T10:58:58.923Z,984.15
2024-03-03T10:59:58.867Z,984.11
2024-03-03T11:00:58.951Z,984.06
2024-03-03T11:01:58.924Z,984.09
2024-03-03T11:02:58.870Z,984.05
2024-03-03T11:03:58.838Z,984.05
2024-03-03T11:04:58.837Z,984.00
2024-03-03T11:05:58.789Z,983.96
2024-03-03T11:06:58.819Z,983.96
2024-03-03T11:07:58.810Z,983.96
2024-03-03T11:08:58.749Z,983.92
2024-03-03T11:09:58.875Z,983.89
2024-03-03T11:10:58.796Z,983.89
2024-03-03T11:11:58.722Z,983.89
2024-03-03T11:12:58.754Z,983.88
2024-03-03T11:13:58.719Z,983.86
2024-03-03T11:14:58.681Z,983.88
2024-03-03T11:15:58.792Z,983.88
2024-03-03T11:16:58.662Z,983.90
2024-03-03T11:17:58.740Z,983.90
2024-03-03T11:18:58.717Z,983.95
2024-03-03T11:19:58.663Z,983.93
2024-03-03T11:20:58.660Z,983.92
2024-03-03T11:21:58.696Z,983.89
2024-03-03T11:22:58.594Z,983.89
2024-03-03T11:23:58.639Z,983.86
2024-03-03T11:24:58.586Z,983.85
2024-03-03T11:25:58.606Z,983.84
2024-03-03T11:26:58.605Z,983.78
2024-03-03T11:27:58.601Z,983.82
2024-03-03T11:28:58.558Z,983.82
2024-03-03T11:29:58.546Z,983.82
2024-03-03T11:30:58.571Z,983.80
2024-03-03T11:31:58.534Z,983.77
2024-03-03T11:32:58.605Z,983.77
2024-03-03T11:33:58.577Z,983.74
2024-03-03T11:34:58.498Z,983.77
2024-03-03T11:35:58.484Z,983.78
2024-03-03T11:36:58.538Z,983.76
2024-03-03T11:37:58.501Z,983.72
2024-03-03T11:38:58.455Z,983.69
2024-03-03T11:39:58.576Z,983.65
2024-03-03T11:40:58.420Z,983.66
2024-03-03T11:41:58.434Z,983.63
2024-03-03T11:42:58.473Z,983.60
2024-03-03T11:43:58.406Z,983.60
2024-03-03T11:44:58.388Z,983.64
2024-03-03T11:46:00.073Z,983.61
2024-03-03T11:46:58.359Z,983.63
2024-03-03T11:47:58.381Z,983.64
2024-03-03T11:48:58.384Z,983.62
2024-03-03T11:49:58.332Z,983.58
2024-03-03T11:50:58.297Z,983.57
2024-03-03T11:51:58.325Z,983.54
2024-03-03T11:52:58.274Z,983.52
2024-03-03T11:53:58.330Z,983.51
2024-03-03T11:54:58.330Z,983.48
2024-03-03T11:55:58.234Z,983.44
2024-03-03T11:56:58.245Z,983.43
2024-03-03T11:57:58.333Z,983.38
2024-03-03T11:58:58.222Z,983.41
2024-03-03T11:59:58.256Z,983.36
2024-03-03T12:00:58.256Z,983.47
2024-03-03T12:01:58.238Z,983.39
2024-03-03T12:02:58.222Z,983.36
2024-03-03T12:03:58.293Z,983.30
2024-03-03T12:04:58.165Z,983.33
2024-03-03T12:05:58.180Z,983.28
2024-03-03T12:06:58.184Z,983.29
2024-03-03T12:07:58.147Z,983.31
2024-03-03T12:08:58.107Z,983.32
2024-03-03T12:09:58.152Z,983.29
2024-03-03T12:10:58.176Z,983.31
2024-03-03T12:11:58.068Z,983.31
2024-03-03T12:12:58.177Z,983.25
2024-03-03T12:13:58.051Z,983.25
2024-03-03T12:14:58.054Z,983.33
2024-03-03T12:15:58.071Z,983.23
2024-03-03T12:16:58.021Z,983.22
2024-03-03T12:17:58.057Z,983.23
2024-03-03T12:18:58.024Z,983.18
2024-03-03T12:19:58.021Z,983.28
2024-03-03T12:20:57.969Z,983.30
2024-03-03T12:21:58.016Z,983.30
2024-03-03T12:22:58.265Z,983.29
2024-03-03T12:23:57.949Z,983.31
2024-03-03T12:24:58.001Z,983.25
2024-03-03T12:25:59.963Z,983.30
2024-03-03T12:26:57.904Z,983.31
2024-03-03T12:27:57.945Z,983.26